Time;durP1;ratioP1;P1;durP2;ratioP2;P2;SDS_P1;SDS_P2;PMS_P1;PMS_P2;Temp;Humidity;BMP_temperature;BMP_pressure;BME280_temperature;BME280_humidity;BME280_pressure;Samples;Min_cycle;Max_cycle;Signal;HPM_P1;HPM_P2
2023/03/27 00:02:21;;;;;;;4.75;1.45;;;1.60;99.90;;;;;;4929706;29;20420;-67
2023/03/27 00:04:47;;;;;;;5.15;0.88;;;1.60;99.90;;;;;;4912354;29;20051;-67
2023/03/27 00:07:13;;;;;;;5.97;1.08;;;1.50;99.90;;;;;;4930556;29;20122;-67
2023/03/27 00:09:39;;;;;;;8.95;1.33;;;1.50;99.90;;;;;;4913590;29;20052;-67
2023/03/27 00:12:05;;;;;;;5.53;1.02;;;1.40;99.90;;;;;;4929006;29;20038;-67
2023/03/27 00:14:31;;;;;;;11.68;1.30;;;1.40;99.90;;;;;;4927673;29;20063;-67
2023/03/27 00:16:58;;;;;;;9.32;1.50;;;1.30;99.90;;;;;;4928609;29;20058;-67
2023/03/27 00:19:25;;;;;;;8.50;1.40;;;1.30;99.90;;;;;;4911984;29;20082;-67
2023/03/27 00:21:52;;;;;;;5.82;1.20;;;1.20;99.90;;;;;;4929915;29;20126;-67
2023/03/27 00:24:18;;;;;;;12.90;1.10;;;1.20;99.90;;;;;;4927912;29;20051;-67
2023/03/27 00:26:44;;;;;;;7.82;1.50;;;1.20;99.90;;;;;;4932413;29;20039;-67
2023/03/27 00:29:12;;;;;;;8.45;1.25;;;1.20;99.90;;;;;;4928373;29;20054;-67
2023/03/27 00:31:37;;;;;;;9.43;1.20;;;1.20;99.90;;;;;;4931703;29;20171;-67
2023/03/27 00:34:03;;;;;;;8.60;1.40;;;1.20;99.90;;;;;;4927935;29;20118;-67
2023/03/27 00:36:30;;;;;;;7.25;1.20;;;1.20;99.90;;;;;;4930246;29;20052;-67
2023/03/27 00:38:56;;;;;;;7.32;1.02;;;1.30;99.90;;;;;;4928553;29;20072;-67
2023/03/27 00:41:22;;;;;;;5.93;0.98;;;1.20;99.90;;;;;;4933855;29;20063;-67
2023/03/27 00:43:51;;;;;;;5.93;1.25;;;1.20;99.90;;;;;;4926364;29;20040;-67
2023/03/27 00:46:38;;;;;;;9.43;1.10;;;1.20;99.90;;;;;;4929184;29;20047;-67
2023/03/27 00:49:07;;;;;;;7.22;1.25;;;1.20;99.90;;;;;;4928824;29;20043;-67
2023/03/27 00:51:35;;;;;;;6.20;1.70;;;1.20;99.90;;;;;;4929205;29;20048;-67
2023/03/27 00:54:03;;;;;;;10.55;1.27;;;1.20;99.90;;;;;;4925855;29;20440;-67
2023/03/27 00:56:29;;;;;;;6.03;1.00;;;1.20;99.90;;;;;;4931145;29;20071;-67
2023/03/27 00:58:59;;;;;;;5.35;0.95;;;1.20;99.90;;;;;;4926292;29;20115;-67
2023/03/27 01:01:27;;;;;;;10.10;1.00;;;1.20;99.90;;;;;;4930219;29;20719;-67
2023/03/27 01:03:54;;;;;;;7.18;0.88;;;1.20;99.90;;;;;;4925502;29;20039;-67
2023/03/27 01:06:21;;;;;;;4.15;0.80;;;1.10;99.90;;;;;;4932170;29;20063;-67
2023/03/27 01:08:47;;;;;;;4.95;0.93;;;1.10;99.90;;;;;;4926989;29;20073;-67
2023/03/27 01:11:51;;;;;;;10.52;1.67;;;1.20;99.90;;;;;;4927264;29;20044;-67
2023/03/27 01:14:20;;;;;;;6.88;1.13;;;1.10;99.90;;;;;;4918777;29;20052;-67
2023/03/27 01:17:11;;;;;;;5.63;1.27;;;1.10;99.90;;;;;;4928463;29;20654;-67
2023/03/27 01:19:45;;;;;;;6.63;0.90;;;1.10;99.90;;;;;;4928347;29;20677;-67
2023/03/27 01:22:29;;;;;;;6.75;1.10;;;1.10;99.90;;;;;;4927780;29;20055;-67
2023/03/27 01:25:06;;;;;;;7.97;1.05;;;1.10;99.90;;;;;;4929514;29;20043;-66
2023/03/27 01:28:01;;;;;;;5.05;0.63;;;1.10;99.90;;;;;;4927776;29;20115;-67
2023/03/27 01:30:38;;;;;;;5.93;1.10;;;1.10;99.90;;;;;;4926342;29;20392;-67
2023/03/27 01:33:37;;;;;;;9.73;0.98;;;1.10;99.90;;;;;;4929698;29;20051;-67
2023/03/27 01:36:21;;;;;;;9.68;1.40;;;1.10;99.90;;;;;;4924862;29;20400;-67
2023/03/27 01:39:12;;;;;;;8.53;0.80;;;1.10;99.90;;;;;;4925095;29;20032;-67
2023/03/27 01:42:02;;;;;;;8.52;1.38;;;1.10;99.90;;;;;;4931468;29;20342;-67
2023/03/27 01:44:33;;;;;;;10.13;1.27;;;1.00;99.90;;;;;;4928429;29;20120;-66
2023/03/27 01:47:10;;;;;;;5.60;1.23;;;1.00;99.90;;;;;;4929126;29;20108;-67
2023/03/27 01:49:55;;;;;;;3.67;1.10;;;1.00;99.90;;;;;;4925451;29;20036;-67
2023/03/27 01:52:27;;;;;;;6.45;0.80;;;1.00;99.90;;;;;;4929114;29;20040;-67
2023/03/27 01:55:02;;;;;;;5.70;1.15;;;1.00;99.90;;;;;;4928540;29;20433;-67
2023/03/27 01:57:45;;;;;;;6.13;0.90;;;1.00;99.90;;;;;;4927593;29;20135;-67
2023/03/27 02:00:16;;;;;;;11.48;1.42;;;1.00;99.90;;;;;;4913230;29;20051;-66
2023/03/27 02:02:58;;;;;;;7.72;1.00;;;0.90;99.90;;;;;;4928809;29;20051;-67
2023/03/27 02:05:40;;;;;;;10.88;1.67;;;0.90;99.90;;;;;;4930259;29;20416;-67
2023/03/27 02:08:14;;;;;;;5.68;1.13;;;0.80;99.90;;;;;;4926033;29;20688;-67
2023/03/27 02:10:45;;;;;;;6.43;1.00;;;0.80;99.90;;;;;;4932008;29;20051;-67
2023/03/27 02:13:20;;;;;;;5.13;1.15;;;0.80;99.90;;;;;;4926276;29;20063;-67
2023/03/27 02:15:48;;;;;;;4.57;1.02;;;0.80;99.90;;;;;;4933984;29;20032;-67
2023/03/27 02:18:20;;;;;;;8.32;1.20;;;0.80;99.90;;;;;;4933237;29;20048;-67
2023/03/27 02:20:45;;;;;;;9.75;1.15;;;0.80;99.90;;;;;;4932734;29;20046;-67
2023/03/27 02:23:12;;;;;;;5.28;1.00;;;0.70;99.90;;;;;;4911622;29;20051;-66
2023/03/27 02:25:44;;;;;;;9.32;1.70;;;0.70;99.90;;;;;;4929278;29;20492;-67
2023/03/27 02:28:28;;;;;;;4.88;0.90;;;0.60;99.90;;;;;;4929601;29;20155;-67
2023/03/27 02:31:13;;;;;;;8.07;1.08;;;0.60;99.90;;;;;;4930833;29;20350;-67
2023/03/27 02:33:58;;;;;;;9.02;2.25;;;0.60;99.90;;;;;;4932383;29;20055;-67
2023/03/27 02:36:45;;;;;;;4.85;0.80;;;0.60;99.90;;;;;;4930380;29;20111;-67
2023/03/27 02:39:19;;;;;;;7.72;1.00;;;0.50;99.90;;;;;;4927559;29;20495;-67
2023/03/27 02:41:51;;;;;;;7.53;1.38;;;0.60;99.90;;;;;;4931769;29;20044;-67
2023/03/27 02:44:30;;;;;;;9.02;1.30;;;0.50;99.90;;;;;;4904153;29;20095;-67
2023/03/27 02:47:08;;;;;;;3.35;1.00;;;0.60;99.90;;;;;;4932252;29;20043;-67
2023/03/27 02:49:50;;;;;;;7.13;1.33;;;0.60;99.90;;;;;;4932693;29;20035;-67
2023/03/27 02:52:28;;;;;;;5.85;1.15;;;0.60;99.90;;;;;;4929482;29;20058;-67
2023/03/27 02:55:04;;;;;;;7.70;0.75;;;0.70;99.90;;;;;;4934289;29;20028;-67
2023/03/27 02:57:32;;;;;;;7.78;0.98;;;0.70;99.90;;;;;;4912954;29;20051;-67
2023/03/27 03:00:21;;;;;;;7.57;1.23;;;0.70;99.90;;;;;;4932206;29;20445;-67
2023/03/27 03:02:48;;;;;;;7.53;1.00;;;0.70;99.90;;;;;;4931481;29;20055;-65
2023/03/27 03:05:19;;;;;;;7.70;1.13;;;0.70;99.90;;;;;;4929894;29;20397;-67
2023/03/27 03:07:46;;;;;;;12.30;1.77;;;0.70;99.90;;;;;;4929562;29;20464;-67
2023/03/27 03:10:12;;;;;;;6.22;0.98;;;0.80;99.90;;;;;;4929159;29;20072;-67
2023/03/27 03:12:38;;;;;;;8.35;1.27;;;0.80;99.90;;;;;;4930088;29;20421;-67
2023/03/27 03:15:06;;;;;;;3.90;0.75;;;0.80;99.90;;;;;;4929196;29;20062;-67
2023/03/27 03:17:33;;;;;;;5.70;1.00;;;0.90;99.90;;;;;;4928912;29;20048;-67
2023/03/27 03:19:59;;;;;;;5.20;0.70;;;0.90;99.90;;;;;;4930316;29;20063;-66
2023/03/27 03:22:25;;;;;;;7.15;0.90;;;0.90;99.90;;;;;;4929584;29;20038;-67
2023/03/27 03:24:51;;;;;;;7.85;0.95;;;0.90;99.90;;;;;;4926889;29;20076;-67
2023/03/27 03:27:19;;;;;;;6.68;0.88;;;1.00;99.90;;;;;;4930183;29;20040;-67
2023/03/27 03:29:47;;;;;;;7.97;1.15;;;0.90;99.90;;;;;;4928343;29;20902;-67
2023/03/27 03:32:13;;;;;;;8.23;0.88;;;1.00;99.90;;;;;;4932356;29;20048;-67
2023/03/27 03:34:45;;;;;;;7.13;2.10;;;1.00;99.90;;;;;;4928420;29;20036;-67
2023/03/27 03:37:11;;;;;;;8.32;0.80;;;1.00;99.90;;;;;;4930942;29;20047;-66
2023/03/27 03:39:37;;;;;;;6.70;0.57;;;1.20;99.90;;;;;;4911799;29;20047;-66
2023/03/27 03:42:03;;;;;;;4.97;0.70;;;1.20;99.90;;;;;;4931593;29;20044;-66
2023/03/27 03:44:28;;;;;;;7.20;0.93;;;1.30;99.90;;;;;;4929267;29;20062;-67
2023/03/27 03:46:54;;;;;;;7.03;0.75;;;1.30;99.90;;;;;;4931207;29;20051;-66
2023/03/27 03:49:20;;;;;;;5.03;0.55;;;1.50;99.90;;;;;;4926727;29;20032;-66
2023/03/27 03:51:46;;;;;;;9.82;1.92;;;1.40;99.90;;;;;;4934097;29;20444;-67
2023/03/27 03:54:12;;;;;;;5.30;0.80;;;1.30;99.90;;;;;;4929420;29;20087;-67
2023/03/27 03:56:40;;;;;;;10.73;1.15;;;1.30;99.90;;;;;;4929610;29;20048;-66
2023/03/27 03:59:07;;;;;;;2.95;0.98;;;1.30;99.90;;;;;;4928459;29;20099;-66
2023/03/27 04:01:33;;;;;;;6.00;0.90;;;1.30;99.90;;;;;;4929176;29;20142;-66
2023/03/27 04:04:01;;;;;;;8.50;0.70;;;1.20;99.90;;;;;;4912749;29;20570;-67
2023/03/27 04:06:29;;;;;;;4.85;0.82;;;1.20;99.90;;;;;;4931318;29;20401;-67
2023/03/27 04:08:56;;;;;;;6.97;1.08;;;1.30;99.90;;;;;;4927198;29;20122;-66
2023/03/27 04:11:22;;;;;;;6.35;0.93;;;1.20;99.90;;;;;;4927902;29;20531;-66
2023/03/27 04:13:48;;;;;;;3.47;0.85;;;1.20;99.90;;;;;;4930249;29;20448;-66
2023/03/27 04:16:14;;;;;;;5.03;1.30;;;1.20;99.90;;;;;;4924130;29;20075;-66
2023/03/27 04:18:41;;;;;;;8.07;1.25;;;1.10;99.90;;;;;;4930388;29;20575;-66
2023/03/27 04:21:13;;;;;;;3.92;0.77;;;1.10;99.90;;;;;;4928622;29;20047;-66
2023/03/27 04:23:42;;;;;;;4.40;0.63;;;1.10;99.90;;;;;;4930302;29;20043;-66
2023/03/27 04:26:10;;;;;;;5.43;1.13;;;1.10;99.90;;;;;;4928735;29;20082;-66
2023/03/27 04:28:37;;;;;;;3.88;0.90;;;1.00;99.90;;;;;;4928673;29;20075;-66
2023/03/27 04:31:09;;;;;;;4.00;0.75;;;1.00;99.90;;;;;;4926902;29;20036;-66
2023/03/27 04:33:38;;;;;;;7.20;1.48;;;1.00;99.90;;;;;;4929655;29;20043;-66
2023/03/27 04:36:06;;;;;;;2.67;0.70;;;0.90;99.90;;;;;;4929974;29;20089;-66
2023/03/27 04:38:35;;;;;;;5.70;0.52;;;0.90;99.90;;;;;;4930273;29;20039;-66
2023/03/27 04:41:01;;;;;;;5.50;0.50;;;0.90;99.90;;;;;;4929791;29;20055;-66
2023/03/27 04:43:27;;;;;;;4.38;0.80;;;0.80;99.90;;;;;;4928688;29;20035;-66
2023/03/27 04:45:53;;;;;;;5.43;0.98;;;0.80;99.90;;;;;;4928221;29;20056;-66
2023/03/27 04:48:20;;;;;;;4.75;0.90;;;0.80;99.90;;;;;;4920078;29;20074;-66
2023/03/27 04:50:49;;;;;;;5.55;0.88;;;0.80;99.90;;;;;;4927663;29;20042;-66
2023/03/27 04:53:16;;;;;;;5.65;1.17;;;0.80;99.90;;;;;;4930594;29;20464;-66
2023/03/27 04:55:44;;;;;;;3.90;0.70;;;0.80;99.90;;;;;;4927781;29;20052;-66
2023/03/27 04:58:11;;;;;;;5.60;0.80;;;0.80;99.90;;;;;;4925033;29;20036;-66
2023/03/27 05:00:38;;;;;;;4.88;1.25;;;0.80;99.90;;;;;;4928215;29;20135;-66
2023/03/27 05:03:04;;;;;;;5.18;0.88;;;0.70;99.90;;;;;;4926812;29;20040;-66
2023/03/27 05:05:29;;;;;;;5.28;1.17;;;0.70;99.90;;;;;;4927158;29;20051;-66
2023/03/27 05:07:55;;;;;;;6.18;1.73;;;0.70;99.90;;;;;;4928423;29;20040;-67
2023/03/27 05:10:22;;;;;;;7.38;1.33;;;0.70;99.90;;;;;;4931847;29;20039;-67
2023/03/27 05:12:49;;;;;;;4.63;1.23;;;0.70;99.90;;;;;;4929234;29;20046;-66
2023/03/27 05:15:17;;;;;;;6.50;1.50;;;0.80;99.90;;;;;;4930630;29;20047;-66
2023/03/27 05:17:44;;;;;;;8.73;1.35;;;0.80;99.90;;;;;;4924609;29;20054;-66
2023/03/27 05:20:18;;;;;;;10.48;1.20;;;0.80;99.90;;;;;;4924949;29;20130;-67
2023/03/27 05:22:44;;;;;;;9.65;1.13;;;0.80;99.90;;;;;;4928256;29;20050;-67
2023/03/27 05:25:12;;;;;;;10.48;1.60;;;0.80;99.90;;;;;;4929311;29;20047;-67
2023/03/27 05:27:45;;;;;;;7.68;1.17;;;0.80;99.90;;;;;;4926934;29;20072;-67
2023/03/27 05:30:13;;;;;;;5.05;0.90;;;0.80;99.90;;;;;;4928577;29;20139;-67
2023/03/27 05:32:39;;;;;;;4.97;1.02;;;0.80;99.90;;;;;;4927341;29;20036;-67
2023/03/27 05:35:05;;;;;;;6.72;1.50;;;0.80;99.90;;;;;;4928970;29;20050;-67
2023/03/27 05:37:31;;;;;;;8.25;1.45;;;0.80;99.90;;;;;;4928002;29;20036;-67
2023/03/27 05:39:56;;;;;;;11.18;1.45;;;0.80;99.90;;;;;;4935320;29;20040;-67
2023/03/27 05:42:22;;;;;;;7.00;1.45;;;0.80;99.90;;;;;;4932978;29;20127;-67
2023/03/27 05:44:48;;;;;;;7.80;1.40;;;0.70;99.90;;;;;;4927691;29;20052;-67
2023/03/27 05:47:14;;;;;;;6.90;1.48;;;0.80;99.90;;;;;;4928037;29;20554;-67
2023/03/27 05:49:42;;;;;;;8.25;1.20;;;0.80;99.90;;;;;;4931246;29;20074;-67
2023/03/27 05:52:08;;;;;;;8.13;1.45;;;0.80;99.90;;;;;;4930436;29;20083;-67
2023/03/27 05:54:34;;;;;;;8.60;1.10;;;0.90;99.90;;;;;;4933913;29;20147;-67
2023/03/27 05:57:00;;;;;;;8.07;1.38;;;0.90;99.90;;;;;;4927562;29;20456;-67
2023/03/27 05:59:26;;;;;;;5.38;1.20;;;0.90;99.90;;;;;;4930378;29;20122;-67
2023/03/27 06:01:52;;;;;;;8.63;1.40;;;0.90;99.90;;;;;;4929956;29;20064;-67
2023/03/27 06:04:18;;;;;;;10.23;2.22;;;0.90;99.90;;;;;;4929951;29;20070;-67
2023/03/27 06:06:44;;;;;;;93.75;64.90;;;1.00;99.90;;;;;;4929204;29;20135;-67
2023/03/27 06:09:11;;;;;;;54.72;30.92;;;1.00;99.90;;;;;;4933304;29;20090;-67
2023/03/27 06:11:38;;;;;;;8.00;2.10;;;1.10;99.90;;;;;;4928237;29;20741;-67
2023/03/27 06:14:04;;;;;;;9.80;1.63;;;1.20;99.90;;;;;;4928666;29;20463;-67
2023/03/27 06:16:30;;;;;;;10.35;1.70;;;1.30;99.90;;;;;;4931925;29;20135;-67
2023/03/27 06:18:57;;;;;;;7.68;1.45;;;1.40;99.90;;;;;;4930004;29;20039;-67
2023/03/27 06:21:23;;;;;;;15.63;1.70;;;1.50;99.90;;;;;;4931332;29;20043;-67
2023/03/27 06:23:49;;;;;;;7.80;1.40;;;1.50;99.90;;;;;;4932942;29;20082;-67
2023/03/27 06:26:15;;;;;;;11.50;2.10;;;1.50;99.90;;;;;;4931921;29;20035;-67
2023/03/27 06:28:42;;;;;;;6.25;1.45;;;1.60;99.90;;;;;;4933878;29;20094;-68
2023/03/27 06:31:08;;;;;;;97.13;65.10;;;1.60;99.90;;;;;;4934523;29;20043;-66
2023/03/27 06:33:33;;;;;;;36.08;18.50;;;1.70;99.90;;;;;;4932172;29;20555;-67
2023/03/27 06:36:00;;;;;;;9.32;2.00;;;1.80;99.90;;;;;;4933595;29;20480;-67
2023/03/27 06:38:31;;;;;;;9.00;1.92;;;2.00;99.90;;;;;;4932146;29;20042;-66
2023/03/27 06:40:58;;;;;;;14.70;1.80;;;2.00;99.90;;;;;;4928436;29;20122;-67
2023/03/27 06:43:24;;;;;;;8.35;1.95;;;2.10;99.90;;;;;;4934179;29;20463;-67
2023/03/27 06:45:50;;;;;;;9.20;1.75;;;2.10;99.90;;;;;;4932401;29;20055;-67
2023/03/27 06:48:17;;;;;;;9.43;1.73;;;2.10;99.90;;;;;;4930275;29;20194;-68
2023/03/27 06:50:45;;;;;;;7.28;1.60;;;2.20;99.90;;;;;;4930914;29;20371;-69
2023/03/27 06:53:15;;;;;;;7.15;1.00;;;2.40;99.90;;;;;;4928448;29;20197;-69
2023/03/27 06:55:41;;;;;;;10.95;1.42;;;2.40;99.90;;;;;;4930271;29;20399;-69
2023/03/27 06:58:07;;;;;;;6.70;0.85;;;2.50;99.90;;;;;;4929881;29;20559;-68
2023/03/27 07:00:36;;;;;;;5.30;0.93;;;2.60;99.90;;;;;;4929598;29;20071;-69
2023/03/27 07:03:05;;;;;;;5.22;0.80;;;2.70;99.90;;;;;;4930680;29;20062;-69
2023/03/27 07:05:35;;;;;;;5.15;1.15;;;2.90;99.90;;;;;;4929016;29;20039;-68
2023/03/27 07:08:19;;;;;;;6.07;0.90;;;3.00;99.90;;;;;;4933048;29;20360;-68
2023/03/27 07:10:45;;;;;;;4.63;0.95;;;3.20;99.90;;;;;;4928048;29;20055;-67
2023/03/27 07:13:11;;;;;;;3.25;0.88;;;3.40;99.90;;;;;;4930129;29;20484;-68
2023/03/27 07:15:37;;;;;;;8.77;1.10;;;3.40;99.90;;;;;;4932922;29;20419;-68
2023/03/27 07:18:05;;;;;;;6.75;1.15;;;3.60;99.90;;;;;;4931337;29;20039;-68
2023/03/27 07:20:32;;;;;;;8.70;1.77;;;3.70;99.90;;;;;;4930312;29;20046;-67
2023/03/27 07:23:00;;;;;;;8.48;1.52;;;3.80;99.90;;;;;;4932411;29;20039;-67
2023/03/27 07:25:36;;;;;;;8.10;1.60;;;3.90;99.90;;;;;;4925814;29;20044;-68
2023/03/27 07:28:15;;;;;;;10.35;1.95;;;4.20;99.90;;;;;;4932585;29;20348;-67
2023/03/27 07:30:41;;;;;;;10.15;1.70;;;4.40;99.90;;;;;;4932841;29;20119;-67
2023/03/27 07:33:08;;;;;;;6.65;1.60;;;4.60;99.90;;;;;;4930056;29;20051;-67
2023/03/27 07:35:40;;;;;;;6.13;1.67;;;4.80;99.90;;;;;;4932437;29;20040;-68
2023/03/27 07:38:05;;;;;;;12.88;2.28;;;5.00;99.90;;;;;;4931829;29;20043;-67
2023/03/27 07:40:32;;;;;;;6.97;1.27;;;5.20;99.90;;;;;;4928797;29;20063;-68
2023/03/27 07:42:58;;;;;;;6.05;1.20;;;5.40;99.90;;;;;;4930311;29;20035;-68
2023/03/27 07:45:24;;;;;;;11.07;1.45;;;5.70;99.90;;;;;;4931941;29;20040;-68
2023/03/27 07:47:50;;;;;;;6.60;1.20;;;5.90;99.90;;;;;;4929736;29;20031;-68
2023/03/27 07:50:19;;;;;;;6.03;1.13;;;6.30;99.90;;;;;;4932329;29;20047;-68
2023/03/27 07:52:45;;;;;;;6.38;0.77;;;6.80;99.90;;;;;;4928558;29;20574;-68
2023/03/27 07:55:13;;;;;;;9.80;1.40;;;7.50;99.90;;;;;;4930455;29;20060;-68
2023/03/27 07:57:43;;;;;;;7.55;2.03;;;8.10;99.90;;;;;;4928585;29;20480;-67
2023/03/27 08:00:10;;;;;;;6.78;1.10;;;8.80;99.90;;;;;;4930658;29;20063;-66
2023/03/27 08:02:40;;;;;;;6.68;1.05;;;9.60;99.90;;;;;;4929520;29;20047;-66
2023/03/27 08:05:07;;;;;;;8.35;0.85;;;9.90;99.90;;;;;;4929920;29;20044;-67
2023/03/27 08:07:37;;;;;;;5.70;0.70;;;10.10;99.90;;;;;;4930247;29;20036;-67
2023/03/27 08:10:05;;;;;;;4.80;1.00;;;10.50;99.90;;;;;;4931622;29;20036;-67
2023/03/27 08:12:31;;;;;;;6.50;0.90;;;10.30;99.90;;;;;;4932097;29;20036;-67
2023/03/27 08:14:58;;;;;;;5.40;1.00;;;9.70;99.90;;;;;;4932659;29;20047;-67
2023/03/27 08:17:32;;;;;;;3.05;0.50;;;8.80;99.90;;;;;;4930553;29;20091;-67
2023/03/27 08:19:59;;;;;;;4.05;0.80;;;7.50;99.90;;;;;;4925966;29;20047;-67
2023/03/27 08:22:25;;;;;;;4.43;0.50;;;6.50;99.90;;;;;;4914971;29;20391;-68
2023/03/27 08:24:51;;;;;;;4.05;0.50;;;5.60;99.90;;;;;;4927137;29;20126;-68
2023/03/27 08:27:17;;;;;;;6.93;0.80;;;5.20;99.90;;;;;;4921589;29;20123;-67
2023/03/27 08:29:43;;;;;;;6.50;0.70;;;5.50;99.90;;;;;;4931818;29;20134;-68
2023/03/27 08:32:09;;;;;;;6.43;2.17;;;6.10;99.90;;;;;;4929530;29;20040;-67
2023/03/27 08:34:36;;;;;;;2.15;0.50;;;6.30;99.90;;;;;;4927662;29;20166;-68
2023/03/27 08:37:03;;;;;;;3.80;0.43;;;6.30;99.90;;;;;;4927975;29;20040;-68
2023/03/27 08:39:29;;;;;;;4.60;0.50;;;7.20;99.90;;;;;;4931806;29;20400;-68
2023/03/27 08:41:59;;;;;;;6.75;1.25;;;8.50;99.90;;;;;;4930646;29;20166;-68
2023/03/27 08:44:28;;;;;;;3.53;0.70;;;9.30;99.90;;;;;;4924818;29;20051;-68
2023/03/27 08:47:05;;;;;;;5.53;0.75;;;9.80;99.90;;;;;;4925626;29;20188;-68
2023/03/27 08:49:35;;;;;;;4.63;1.33;;;10.30;99.90;;;;;;4928324;29;20051;-68
2023/03/27 08:52:07;;;;;;;4.28;0.82;;;10.80;99.90;;;;;;4928724;29;20039;-68
2023/03/27 08:54:35;;;;;;;6.60;0.90;;;11.30;99.90;;;;;;4928312;29;20123;-68
2023/03/27 08:57:13;;;;;;;6.00;0.93;;;11.40;99.90;;;;;;4927634;29;20445;-69
2023/03/27 08:59:39;;;;;;;5.78;1.23;;;11.80;99.90;;;;;;4924224;29;20051;-69
2023/03/27 09:02:43;;;;;;;5.60;0.98;;;12.00;99.90;;;;;;4925643;29;20463;-69
2023/03/27 09:05:33;;;;;;;5.85;1.23;;;12.10;99.90;;;;;;4922758;29;20047;-69
2023/03/27 09:08:15;;;;;;;6.97;0.90;;;12.30;99.90;;;;;;4930334;29;20518;-69
2023/03/27 09:10:55;;;;;;;5.47;1.00;;;11.90;99.90;;;;;;4927186;29;20035;-68
2023/03/27 09:13:36;;;;;;;4.30;0.90;;;10.40;99.90;;;;;;4931836;29;20040;-69
2023/03/27 09:16:36;;;;;;;5.20;1.00;;;9.00;99.90;;;;;;4936121;29;20041;-68
2023/03/27 09:19:23;;;;;;;1.80;0.30;;;8.20;99.90;;;;;;4930303;29;20043;-69
2023/03/27 09:22:03;;;;;;;2.05;0.30;;;7.30;99.90;;;;;;4932740;29;20043;-69
2023/03/27 09:24:45;;;;;;;1.00;0.20;;;6.50;99.90;;;;;;4924418;29;20139;-68
2023/03/27 09:27:22;;;;;;;4.38;2.00;;;6.00;99.90;;;;;;4933342;29;20055;-68
2023/03/27 09:30:14;;;;;;;1.20;0.10;;;5.90;99.90;;;;;;4932727;29;20182;-68
2023/03/27 09:32:42;;;;;;;1.10;0.20;;;6.80;99.90;;;;;;4931746;29;20064;-69
2023/03/27 09:35:13;;;;;;;0.95;0.20;;;8.10;99.90;;;;;;4929851;29;20078;-69
2023/03/27 09:37:39;;;;;;;2.20;0.30;;;9.10;99.90;;;;;;4936232;29;20655;-68
2023/03/27 09:40:12;;;;;;;1.13;0.30;;;9.80;99.90;;;;;;4934948;29;20035;-69
2023/03/27 09:42:41;;;;;;;2.70;0.40;;;10.30;99.90;;;;;;4933333;29;20035;-69
2023/03/27 09:45:11;;;;;;;2.53;0.30;;;10.50;99.90;;;;;;4929422;29;20046;-69
2023/03/27 09:47:56;;;;;;;3.00;0.25;;;11.00;99.90;;;;;;4932546;29;20044;-69
2023/03/27 09:50:40;;;;;;;2.67;0.30;;;11.40;99.90;;;;;;4934904;29;20091;-69
2023/03/27 09:53:26;;;;;;;3.17;0.52;;;11.90;99.90;;;;;;4929985;29;20079;-69
2023/03/27 09:56:01;;;;;;;3.47;0.50;;;12.20;99.90;;;;;;4930946;29;20058;-69
2023/03/27 09:58:27;;;;;;;4.15;0.60;;;12.30;99.90;;;;;;4928923;29;20484;-68
2023/03/27 10:01:12;;;;;;;2.30;0.60;;;12.40;99.90;;;;;;4923494;29;20064;-68
2023/03/27 10:03:50;;;;;;;5.95;0.60;;;11.60;99.90;;;;;;4932297;29;20047;-69
2023/03/27 10:06:51;;;;;;;4.13;0.88;;;11.00;99.90;;;;;;4916885;29;20044;-68
2023/03/27 10:09:33;;;;;;;30.00;23.42;;;10.20;99.90;;;;;;4930264;29;20048;-69
2023/03/27 10:12:06;;;;;;;6.30;1.33;;;10.60;99.90;;;;;;4930680;29;20447;-69
2023/03/27 10:14:43;;;;;;;3.00;0.55;;;11.50;99.90;;;;;;4931782;29;20047;-69
2023/03/27 10:17:34;;;;;;;6.53;0.60;;;11.80;99.90;;;;;;4928780;29;20432;-69
2023/03/27 10:20:16;;;;;;;3.35;0.50;;;11.90;99.90;;;;;;4929428;29;20046;-69
2023/03/27 10:22:51;;;;;;;5.35;0.65;;;11.90;99.90;;;;;;4929859;29;20314;-69
2023/03/27 10:25:20;;;;;;;3.25;0.50;;;11.50;99.90;;;;;;4930192;29;20040;-69
2023/03/27 10:27:46;;;;;;;4.57;0.40;;;10.70;99.90;;;;;;4929747;29;20048;-69
2023/03/27 10:30:33;;;;;;;4.85;0.57;;;9.80;98.70;;;;;;4932660;29;20401;-69
2023/03/27 10:32:59;;;;;;;3.35;0.45;;;9.70;99.40;;;;;;4926663;29;20154;-69
2023/03/27 10:35:37;;;;;;;5.05;1.15;;;10.00;99.80;;;;;;4929541;29;20188;-69
2023/03/27 10:38:09;;;;;;;4.25;0.55;;;10.80;99.60;;;;;;4927001;29;20492;-69
2023/03/27 10:40:37;;;;;;;2.95;0.73;;;11.20;98.90;;;;;;4915032;29;20341;-69
2023/03/27 10:43:11;;;;;;;3.83;0.95;;;11.50;97.30;;;;;;4930055;29;20095;-69
2023/03/27 10:45:46;;;;;;;2.83;0.50;;;11.50;96.10;;;;;;4934635;29;20043;-68
2023/03/27 10:48:27;;;;;;;2.60;0.52;;;10.60;95.50;;;;;;4930247;29;21020;-68
2023/03/27 10:50:56;;;;;;;5.10;1.08;;;10.20;96.40;;;;;;4928369;29;20043;-69
2023/03/27 10:53:40;;;;;;;16.67;8.82;;;10.60;98.00;;;;;;4923784;29;20067;-68
2023/03/27 10:56:24;;;;;;;5.60;1.95;;;11.10;96.70;;;;;;4929696;29;20122;-68
2023/03/27 10:59:03;;;;;;;4.78;1.35;;;11.30;97.60;;;;;;4927994;29;20168;-68
2023/03/27 11:01:44;;;;;;;3.17;0.90;;;11.80;97.30;;;;;;4929385;29;20075;-68
2023/03/27 11:04:22;;;;;;;4.30;1.02;;;12.30;96.60;;;;;;4924181;29;20048;-69
2023/03/27 11:06:52;;;;;;;6.05;1.00;;;12.30;96.20;;;;;;4932567;29;20039;-69
2023/03/27 11:09:37;;;;;;;2.75;0.98;;;12.30;94.00;;;;;;4927868;29;21106;-69
2023/03/27 11:12:13;;;;;;;3.65;0.63;;;12.10;93.40;;;;;;4926382;29;20044;-70
2023/03/27 11:15:08;;;;;;;2.92;0.65;;;12.20;94.20;;;;;;4930146;29;20424;-68
2023/03/27 11:18:00;;;;;;;5.28;0.85;;;12.00;92.70;;;;;;4926288;29;20071;-69
2023/03/27 11:20:32;;;;;;;4.85;1.35;;;11.50;94.90;;;;;;4933939;29;20383;-70
2023/03/27 11:23:08;;;;;;;5.22;0.90;;;11.50;93.10;;;;;;4932105;29;20404;-69
2023/03/27 11:25:40;;;;;;;4.43;1.00;;;11.70;94.80;;;;;;4931821;29;20059;-69
2023/03/27 11:28:29;;;;;;;4.55;1.10;;;12.00;92.20;;;;;;4930534;29;20040;-69
2023/03/27 11:31:05;;;;;;;5.35;1.27;;;12.20;92.60;;;;;;4947129;29;20055;-69
2023/03/27 11:33:41;;;;;;;5.38;0.93;;;12.60;92.70;;;;;;4930107;29;20028;-69
2023/03/27 11:36:33;;;;;;;4.65;0.65;;;12.90;91.00;;;;;;4926418;29;20392;-69
2023/03/27 11:39:14;;;;;;;3.35;0.70;;;12.60;86.10;;;;;;4930669;29;20039;-70
2023/03/27 11:41:42;;;;;;;2.83;0.47;;;12.40;92.00;;;;;;4932785;29;20058;-68
2023/03/27 11:44:09;;;;;;;2.05;0.55;;;11.30;93.00;;;;;;4930370;29;20039;-68
2023/03/27 11:47:17;;;;;;;4.28;0.70;;;9.90;95.60;;;;;;4927958;29;20052;-68
2023/03/27 11:49:55;;;;;;;2.38;0.45;;;8.80;98.30;;;;;;4930195;29;20039;-68
2023/03/27 11:52:54;;;;;;;5.07;2.10;;;8.20;99.90;;;;;;4931883;29;20055;-68
2023/03/27 11:55:35;;;;;;;2.67;0.30;;;8.30;99.90;;;;;;4930150;29;20063;-69
2023/03/27 11:58:20;;;;;;;4.93;0.50;;;9.30;99.90;;;;;;4931241;29;20115;-69
2023/03/27 12:01:06;;;;;;;;;;;10.30;98.50;;;;;;4930009;29;20056;-70
2023/03/27 12:03:51;;;;;;;3.90;0.60;;;10.80;97.50;;;;;;4908510;29;19966;-69
2023/03/27 12:06:30;;;;;;;2.45;0.47;;;11.40;95.30;;;;;;4928237;29;20039;-69
2023/03/27 12:09:09;;;;;;;3.95;0.40;;;11.70;95.40;;;;;;4930126;29;20050;-69
2023/03/27 12:11:42;;;;;;;2.53;0.47;;;12.60;93.70;;;;;;4946423;29;20550;-69
2023/03/27 12:14:26;;;;;;;2.70;0.60;;;13.10;92.20;;;;;;4930972;29;20055;-70
2023/03/27 12:17:19;;;;;;;5.55;0.60;;;13.20;90.10;;;;;;4928649;29;20539;-70
2023/03/27 12:19:57;;;;;;;4.90;0.60;;;13.50;89.70;;;;;;4928475;29;20054;-70
2023/03/27 12:22:42;;;;;;;4.75;0.57;;;12.50;90.00;;;;;;4930047;29;20793;-70
2023/03/27 12:25:40;;;;;;;6.65;0.60;;;10.80;92.90;;;;;;4921597;29;20134;-69
2023/03/27 12:28:36;;;;;;;3.50;0.65;;;9.00;96.70;;;;;;4900243;29;20051;-69
2023/03/27 12:31:12;;;;;;;5.95;0.80;;;8.20;99.70;;;;;;4913468;29;20083;-70
2023/03/27 12:33:43;;;;;;;2.38;0.45;;;7.90;99.90;;;;;;4927437;29;20567;-69
2023/03/27 12:36:14;;;;;;;50.83;36.95;;;8.70;99.90;;;;;;4930159;29;20153;-69
2023/03/27 12:38:42;;;;;;;5.55;1.55;;;10.00;99.90;;;;;;4925143;29;20102;-70
2023/03/27 12:41:09;;;;;;;3.97;0.60;;;10.80;99.70;;;;;;4914231;29;20067;-69
2023/03/27 12:43:40;;;;;;;7.00;1.10;;;11.40;98.90;;;;;;4930765;29;20083;-69
2023/03/27 12:46:25;;;;;;;5.97;1.00;;;12.00;97.00;;;;;;4924055;29;20724;-69
2023/03/27 12:48:57;;;;;;;4.43;0.90;;;12.50;94.80;;;;;;4926046;29;20055;-69
2023/03/27 12:51:50;;;;;;;5.45;0.65;;;12.30;95.20;;;;;;4927605;29;20155;-69
2023/03/27 12:54:39;;;;;;;5.25;0.70;;;11.80;92.60;;;;;;4929575;29;20044;-74
2023/03/27 12:57:21;;;;;;;5.43;0.70;;;11.00;90.50;;;;;;4929760;29;20551;-66
2023/03/27 12:59:47;;;;;;;3.20;0.70;;;9.90;90.80;;;;;;4917389;29;20039;-67
2023/03/27 13:02:58;;;;;;;3.75;0.50;;;8.90;90.80;;;;;;4912716;29;20447;-65
2023/03/27 13:05:36;;;;;;;3.83;0.57;;;9.50;91.30;;;;;;4903854;29;20059;-69
2023/03/27 13:08:09;;;;;;;5.05;0.60;;;10.90;92.10;;;;;;4925124;29;20044;-69
2023/03/27 13:10:54;;;;;;;5.35;0.70;;;11.80;91.40;;;;;;4930935;29;20480;-69
2023/03/27 13:13:38;;;;;;;4.00;0.57;;;13.00;90.60;;;;;;4929295;29;20047;-69
2023/03/27 13:16:22;;;;;;;3.70;1.00;;;12.70;84.30;;;;;;4929937;29;20027;-70
2023/03/27 13:19:26;;;;;;;7.40;0.93;;;12.60;85.60;;;;;;4925971;29;20468;-69
2023/03/27 13:22:00;;;;;;;4.82;1.15;;;12.30;84.50;;;;;;4931651;29;20112;-69
2023/03/27 13:24:37;;;;;;;;;;;12.30;89.00;;;;;;4929165;29;20040;-69